Aérodrome :
LOGIN :

S'inscrire | Disclaimer

   EN    FR    IT 

 










Légende :    VFR   VFR Marginal   IFR   IFR Intensif   IFR Très Intensif
Visi : 
Plafond : 
>= 8 km
>= 3000ft
5 à 8 km
1000 à 3000 ft
1500m à 5 km
500 à 1000 ft
800 à 1500m
200 à 500 ft
< 800m
< 200 ft
Symboles :   Orages  Brouillard  Fortes neiges  Fortes précipitations  Vent > 20 kt
SIGMETs :   Divers  Orages  Givrage  Turbulence  Onde Orograph.  Cendres Volcan.







- Altitude de l'aérodrome : 461 ft
- Code IATA : WIE


ETOU - Wiesbaden Army

DERNIER METAR :
  • 281058Z AUTO 19004KT 9999 FEW065 SCT085 SCT190 12/M01 A2993 RMK AO2 RAB16E26 SLP140 P0000 T01151007

METARs EXPIRÉS :
  • 280958Z AUTO 25006KT 9999 FEW050 10/M01 A2994 RMK AO2 SLP144 T00981015
  • 280858Z AUTO VRB03KT 9999 CLR 11/00 A2994 RMK AO2 SLP144 T01051001 58001

TAF TAF ETOU
Valide du 28 à 11h jusqu'au 29 à 17h UTC


281113Z 2811/2917 28008KT 9999 BKN040 620407 QNH2994INS
TEMPO 2813/2818 8000 -SHRA
BECMG 2822/2823 VRB06KT 6000 BR BKN030 QNH3004INS
BECMG 2906/2907 VRB06KT 9999 NSW BKN045 QNH3004INS
BECMG 2914/2915 07005KT 9999 SCT050 QNH3003INS TX13/2812Z TNM02/2902Z
Pas de NOTAMs connus pour ce terrain.



MET'MAP, la Météo Aéronautique d'un coup d'oeil ! - Copyright ORBIFLY Décembre 2007 - Disclaimer

ORBIFLY MET'MAP TEAM :

Programmation & Développement : Alexandra Zaïnal
Conception & Développement : Baudouin d'Aumeries
Co-Programmation & Développement : Marc-Olivier Méhu
Soutien technique & logistique : Manuel Goepfert

Contact : metmap@orbifly.com




SOURCES & CREDITS :

   NOAA